KBYG

Johnson County Airport

Buffalo, Wyoming, USA
METAR KBYG 242053Z AUTO 35015G21KT 10SM BKN055 13/02 A2999 RMK AO2 SLP134 T01330022 53001
Observed Flight Rules
Sep-24 @ 20:53 UTC (an hour ago) Visual Flight Rules
Wind Visibility Clouds
350° at 15 knots
 Gusting to 21 knots
10 miles
  • Broken at 5,500' AGL
Temperatures Readings
Current 13°C / 55°F
Dewpoint 2°C / 36°F
Humidity 47%
Altimeter 29.99" Hg
Pressure 1013.4 hPa
Elevation 1497
METAR KBYG 242053Z AUTO 35015G21KT 10SM BKN055 13/02 A2999 RMK AO2 SLP134 T01330022 53001
Observed Flight Rules
Sep-24 @ 20:53 UTC
(an hour ago)
VFR
Wind Visibility
350° at 15 knots
 Gusting to 21 knots
10 miles
Clouds
  • Broken at 5,500' AGL
Temperature Dewpoint
13°C / 55°F 2°C / 36°F
Humidity Altimeter Pressure
47% 29.99" Hg 1013.4 hPa